Time,TemperatureF,DewpointF,PressureIn,WindDirection,WindDirectionDegrees,WindSpeedMPH,WindSpeedGustMPH,Humidity,HourlyPrecipIn,Conditions,Clouds,dailyrainin,SoftwareType,DateUTC
2013-01-23 00:00:00,50.1,37.6,30.09,NNW,338,2.0,3.0,62,0.00,,---,0.00,VWS V14.01,2013-01-23 08:00:00,
2013-01-23 00:30:00,49.6,38.7,30.07,NNW,338,1.0,3.0,66,0.00,,---,0.00,VWS V14.01,2013-01-23 08:30:00,
2013-01-23 01:00:00,49.8,38.9,30.08,NNW,338,1.0,3.0,66,0.00,,---,0.00,VWS V14.01,2013-01-23 09:00:00,
2013-01-23 01:30:00,49.9,38.6,30.07,WNW,292,3.0,5.0,65,0.00,,---,0.00,VWS V14.01,2013-01-23 09:30:00,
2013-01-23 02:00:00,50.9,38.4,30.08,WNW,292,3.0,5.0,62,0.00,,---,0.00,VWS V14.01,2013-01-23 10:00:00,
2013-01-23 02:30:00,51.8,38.8,30.08,WNW,292,3.0,4.0,61,0.00,,---,0.00,VWS V14.01,2013-01-23 10:30:00,
2013-01-23 03:00:00,51.7,39.1,30.07,WNW,292,3.0,5.0,62,0.00,,---,0.00,VWS V14.01,2013-01-23 11:00:00,
2013-01-23 03:30:00,51.4,38.4,30.06,WNW,292,3.0,5.0,61,0.00,,---,0.00,VWS V14.01,2013-01-23 11:30:00,
2013-01-23 04:00:00,51.2,39.0,30.06,WNW,292,2.0,4.0,63,0.00,,---,0.00,VWS V14.01,2013-01-23 12:00:00,
2013-01-23 04:30:00,51.4,39.7,30.05,WNW,292,2.0,4.0,64,0.00,,---,0.00,VWS V14.01,2013-01-23 12:30:00,
2013-01-23 05:00:00,52.0,38.6,30.05,WNW,292,3.0,4.0,60,0.00,,---,0.00,VWS V14.01,2013-01-23 13:00:00,
2013-01-23 05:30:00,52.5,39.0,30.05,WNW,292,3.0,4.0,60,0.00,,---,0.00,VWS V14.01,2013-01-23 13:30:00,
2013-01-23 06:00:00,52.7,39.2,30.06,WNW,292,2.0,4.0,60,0.00,,---,0.00,VWS V14.01,2013-01-23 14:00:00,
2013-01-23 06:30:00,53.4,38.6,30.07,WNW,292,3.0,5.0,57,0.00,,---,0.00,VWS V14.01,2013-01-23 14:30:00,
2013-01-23 07:00:00,53.1,38.7,30.07,WNW,292,2.0,4.0,58,0.00,,---,0.00,VWS V14.01,2013-01-23 15:00:00,
2013-01-23 07:30:00,53.1,39.2,30.07,WNW,292,2.0,4.0,59,0.00,,---,0.00,VWS V14.01,2013-01-23 15:30:00,
2013-01-23 08:00:00,54.4,37.6,30.07,NNE,22,2.0,5.0,53,0.00,,---,0.00,VWS V14.01,2013-01-23 16:00:00,
2013-01-23 08:30:00,57.9,37.8,30.07,NNE,22,2.0,4.0,47,0.00,,---,0.00,VWS V14.01,2013-01-23 16:30:00,
2013-01-23 09:00:00,63.0,37.7,30.08,North,0,1.0,3.0,39,0.00,,---,0.00,VWS V14.01,2013-01-23 17:00:00,
2013-01-23 09:30:00,68.0,40.1,30.09,NNE,22,2.0,5.0,36,0.00,,---,0.00,VWS V14.01,2013-01-23 17:30:00,
2013-01-23 10:00:00,70.0,39.6,30.09,NNE,22,1.0,4.0,33,0.00,,---,0.00,VWS V14.01,2013-01-23 18:00:00,
2013-01-23 10:30:00,71.7,41.1,30.09,NNE,22,0.0,2.0,33,0.00,,---,0.00,VWS V14.01,2013-01-23 18:30:00,
2013-01-23 11:00:00,72.8,41.3,30.09,NNE,22,0.0,2.0,32,0.00,,---,0.00,VWS V14.01,2013-01-23 19:00:00,
2013-01-23 11:30:00,73.8,43.7,30.09,NNE,22,1.0,5.0,34,0.00,,---,0.00,VWS V14.01,2013-01-23 19:30:00,
2013-01-23 12:00:00,69.9,41.8,30.08,South,180,4.0,10.0,36,0.00,,---,0.00,VWS V14.01,2013-01-23 20:00:00,
2013-01-23 12:30:00,68.5,38.3,30.08,SSW,202,2.0,6.0,33,0.00,,---,0.00,VWS V14.01,2013-01-23 20:30:00,
2013-01-23 13:00:00,67.4,39.5,30.07,South,180,3.0,6.0,36,0.00,,---,0.00,VWS V14.01,2013-01-23 21:00:00,
2013-01-23 13:30:00,68.1,40.2,30.07,South,180,1.0,3.0,36,0.00,,---,0.00,VWS V14.01,2013-01-23 21:30:00,
2013-01-23 14:00:00,69.2,40.4,30.06,South,180,1.0,5.0,35,0.00,,---,0.00,VWS V14.01,2013-01-23 22:00:00,
2013-01-23 14:30:00,69.1,40.3,30.06,ESE,112,4.0,9.0,35,0.00,,---,0.00,VWS V14.01,2013-01-23 22:30:00,
2013-01-23 15:00:00,70.0,41.1,30.07,ESE,112,4.0,9.0,35,0.00,,---,0.00,VWS V14.01,2013-01-23 23:00:00,
2013-01-23 15:30:00,69.9,40.3,30.07,SE,135,4.0,12.0,34,0.00,,---,0.00,VWS V14.01,2013-01-23 23:30:00,
2013-01-23 16:00:00,68.8,39.3,30.07,ESE,112,7.0,13.0,34,0.00,,---,0.00,VWS V14.01,2013-01-24 00:00:00,
2013-01-23 16:30:00,65.0,44.8,30.09,South,188,2.0,17.0,48,0.00,,---,0.00,VWS V14.01,2013-01-24 00:30:00,
2013-01-23 16:59:00,65.9,44.0,30.08,SE,133,5.0,12.0,45,0.00,,---,0.00,VWS V14.01,2013-01-24 00:59:00,
2013-01-23 17:00:00,65.9,44.0,30.08,SE,133,5.0,12.0,45,0.00,,---,0.00,VWS V14.01,2013-01-24 01:00:00,
2013-01-23 17:29:00,65.0,44.8,30.09,South,188,2.0,17.0,48,0.00,,---,0.00,VWS V14.01,2013-01-24 01:29:00,
2013-01-23 17:30:00,65.0,44.8,30.09,South,188,2.0,17.0,48,0.00,,---,0.00,VWS V14.01,2013-01-24 01:30:00,
2013-01-23 17:59:00,64.3,44.8,30.10,SE,141,4.0,8.0,49,0.00,,---,0.00,VWS V14.01,2013-01-24 01:59:00,
2013-01-23 18:00:00,64.3,44.8,30.10,SE,141,4.0,8.0,49,0.00,,---,0.00,VWS V14.01,2013-01-24 02:00:00,
2013-01-23 18:29:00,63.7,45.8,30.12,South,179,4.0,9.0,52,0.00,,---,0.00,VWS V14.01,2013-01-24 02:29:00,
2013-01-23 18:30:00,63.7,45.8,30.12,South,179,4.0,9.0,52,0.00,,---,0.00,VWS V14.01,2013-01-24 02:30:00,
2013-01-23 18:59:00,62.8,50.9,30.12,SSE,159,4.0,11.0,65,0.00,,---,0.00,VWS V14.01,2013-01-24 02:59:00,
2013-01-23 19:00:00,62.8,50.9,30.12,SSE,159,4.0,11.0,65,0.00,,---,0.00,VWS V14.01,2013-01-24 03:00:00,
2013-01-23 19:29:00,61.8,50.3,30.12,SE,134,2.0,10.0,66,0.00,,---,0.00,VWS V14.01,2013-01-24 03:29:00,
2013-01-23 19:30:00,61.8,50.3,30.12,SE,134,2.0,10.0,66,0.00,,---,0.00,VWS V14.01,2013-01-24 03:30:00,
2013-01-23 19:59:00,62.0,50.9,30.11,SSE,157,2.0,9.0,67,0.00,,---,0.00,VWS V14.01,2013-01-24 03:59:00,
2013-01-23 20:00:00,62.0,50.9,30.11,SSE,157,2.0,9.0,67,0.00,,---,0.00,VWS V14.01,2013-01-24 04:00:00,
2013-01-23 20:30:00,61.4,51.2,30.11,SE,135,4.0,8.0,69,0.00,,---,0.00,VWS V14.01,2013-01-24 04:30:00,
2013-01-23 21:00:00,61.7,50.6,30.11,SE,135,5.0,12.0,67,0.00,,---,0.00,VWS V14.01,2013-01-24 05:00:00,
2013-01-23 21:30:00,61.5,52.0,30.13,SSE,158,3.0,7.0,71,0.00,,---,0.00,VWS V14.01,2013-01-24 05:30:00,
2013-01-23 22:00:00,61.0,52.3,30.15,SSE,158,4.0,9.0,73,0.00,,---,0.00,VWS V14.01,2013-01-24 06:00:00,
2013-01-23 22:30:00,60.3,54.5,30.16,SSE,158,3.0,8.0,81,0.00,,---,0.00,VWS V14.01,2013-01-24 06:30:00,
2013-01-23 23:00:00,59.6,55.1,30.17,SSE,158,1.0,5.0,85,0.00,,---,0.00,VWS V14.01,2013-01-24 07:00:00,
2013-01-23 23:30:00,59.0,55.5,30.17,SSE,158,1.0,3.0,88,0.01,,---,0.01,VWS V14.01,2013-01-24 07:30:00,